createdAt,value
2019-03-31T00:03:11.158Z,200.17
2019-03-31T00:06:35.047Z,230.97
2019-03-31T00:09:58.893Z,276.93
2019-03-31T00:13:22.657Z,250.57
2019-03-31T00:16:46.464Z,268.23
2019-03-31T00:20:10.717Z,243.00
2019-03-31T00:23:34.687Z,272.70
2019-03-31T00:26:58.564Z,278.37
2019-03-31T00:30:22.453Z,339.80
2019-03-31T00:33:46.286Z,372.13
2019-03-31T00:37:10.119Z,319.70
2019-03-31T00:40:34.007Z,306.70
2019-03-31T00:43:57.804Z,299.50
2019-03-31T00:47:21.631Z,330.73
2019-03-31T00:50:45.479Z,299.17
2019-03-31T00:54:12.108Z,309.50
2019-03-31T00:57:36.280Z,302.77
2019-03-31T01:01:03.336Z,278.97
2019-03-31T01:04:30.913Z,278.97
2019-03-31T01:07:55.776Z,273.13
2019-03-31T01:11:21.716Z,268.30
2019-03-31T01:14:45.622Z,267.67
2019-03-31T01:18:10.076Z,266.80
2019-03-31T01:21:33.937Z,268.07
2019-03-31T01:24:57.818Z,275.00
2019-03-31T01:28:22.857Z,294.60
2019-03-31T01:31:50.547Z,312.87
2019-03-31T01:35:13.863Z,368.63
2019-03-31T01:38:37.757Z,400.53
2019-03-31T01:42:01.569Z,357.17
2019-03-31T01:45:25.835Z,309.07
2019-03-31T01:48:49.854Z,303.13
2019-03-31T01:52:13.648Z,301.57
2019-03-31T01:55:37.441Z,340.50
2019-03-31T01:59:01.335Z,353.43
2019-03-31T02:02:29.496Z,428.13
2019-03-31T02:05:56.073Z,330.07
2019-03-31T02:09:19.906Z,402.60
2019-03-31T02:12:43.830Z,407.37
2019-03-31T02:16:07.636Z,338.07
2019-03-31T02:19:31.521Z,282.80
2019-03-31T02:22:55.291Z,364.70
2019-03-31T02:26:19.359Z,420.87
2019-03-31T02:29:43.113Z,311.93
2019-03-31T02:33:06.877Z,316.03
2019-03-31T02:36:30.799Z,331.20
2019-03-31T02:39:54.592Z,296.67
2019-03-31T02:43:18.549Z,296.63
2019-03-31T02:46:42.373Z,349.07
2019-03-31T02:50:06.974Z,344.20
2019-03-31T02:53:30.700Z,379.73
2019-03-31T02:56:55.414Z,364.17
2019-03-31T03:00:19.288Z,315.07
2019-03-31T03:03:44.196Z,397.77
2019-03-31T03:07:10.147Z,329.50
2019-03-31T03:10:35.734Z,353.17
2019-03-31T03:14:02.487Z,371.80
2019-03-31T03:17:26.311Z,558.30
2019-03-31T03:20:50.153Z,462.13
2019-03-31T03:24:14.030Z,463.47
2019-03-31T03:27:37.895Z,395.33
2019-03-31T03:31:01.938Z,401.93
2019-03-31T03:34:25.881Z,288.27
2019-03-31T03:37:49.625Z,285.33
2019-03-31T03:41:13.424Z,238.93
2019-03-31T03:44:37.312Z,200.07
2019-03-31T03:48:01.128Z,261.40
2019-03-31T03:51:24.920Z,280.57
2019-03-31T03:54:48.778Z,348.70
2019-03-31T03:58:12.586Z,360.23
2019-03-31T04:01:36.419Z,468.27
2019-03-31T04:05:00.587Z,471.63
2019-03-31T04:08:24.572Z,438.67
2019-03-31T04:11:48.435Z,399.77
2019-03-31T04:15:12.222Z,379.53
2019-03-31T04:18:36.025Z,259.53
2019-03-31T04:22:00.030Z,309.73
2019-03-31T04:25:24.010Z,201.33
2019-03-31T04:28:47.717Z,314.93
2019-03-31T04:32:11.527Z,376.50
2019-03-31T04:35:35.619Z,412.07
2019-03-31T04:39:00.393Z,393.87
2019-03-31T04:42:24.714Z,260.70
2019-03-31T04:45:48.504Z,278.77
2019-03-31T04:49:12.473Z,250.57
2019-03-31T04:52:36.258Z,343.37
2019-03-31T04:56:00.043Z,281.80
2019-03-31T04:59:23.876Z,287.10
2019-03-31T05:02:47.572Z,322.57
2019-03-31T05:06:11.346Z,317.70
2019-03-31T05:09:36.003Z,329.83
2019-03-31T05:12:59.852Z,249.60
2019-03-31T05:16:23.674Z,299.70
2019-03-31T05:19:47.554Z,313.63
2019-03-31T05:23:11.377Z,261.60
2019-03-31T05:26:35.174Z,169.73
2019-03-31T05:29:58.928Z,211.77
2019-03-31T05:33:22.754Z,266.93
2019-03-31T05:36:46.604Z,245.53
2019-03-31T05:40:11.454Z,251.57
2019-03-31T05:43:35.209Z,170.87
2019-03-31T05:46:59.371Z,106.73
2019-03-31T05:50:23.171Z,93.03
2019-03-31T05:53:47.166Z,89.53
2019-03-31T05:57:11.069Z,91.03
2019-03-31T06:00:38.031Z,87.93
2019-03-31T06:04:01.766Z,93.57
2019-03-31T06:07:25.760Z,87.63
2019-03-31T06:10:49.485Z,96.03
2019-03-31T06:14:13.344Z,93.27
2019-03-31T06:17:37.164Z,90.30
2019-03-31T06:21:01.134Z,86.37
2019-03-31T06:24:26.976Z,82.83
2019-03-31T06:27:50.751Z,80.87
2019-03-31T06:31:15.444Z,71.80
2019-03-31T06:34:47.162Z,65.67
2019-03-31T06:38:04.889Z,73.70
2019-03-31T06:41:28.594Z,69.00
2019-03-31T06:44:52.514Z,64.87
2019-03-31T06:48:16.284Z,67.03
2019-03-31T06:51:40.046Z,68.13
2019-03-31T06:55:06.410Z,66.00
2019-03-31T06:58:30.391Z,63.73
2019-03-31T07:01:54.192Z,65.27
2019-03-31T07:05:20.009Z,65.17
2019-03-31T07:08:44.609Z,63.97
2019-03-31T07:12:08.424Z,61.50
2019-03-31T07:15:32.230Z,60.87
2019-03-31T07:18:56.170Z,61.87
2019-03-31T07:22:20.351Z,59.83
2019-03-31T07:25:44.126Z,55.67
2019-03-31T07:29:08.471Z,54.40
2019-03-31T07:32:32.285Z,55.07
2019-03-31T07:35:56.266Z,54.13
2019-03-31T07:39:22.308Z,49.53
2019-03-31T07:42:46.304Z,52.57
2019-03-31T07:46:10.142Z,49.27
2019-03-31T07:49:36.790Z,48.60
2019-03-31T07:53:01.493Z,46.90
2019-03-31T07:56:25.211Z,43.27
2019-03-31T07:59:48.978Z,53.40
2019-03-31T08:03:13.369Z,47.13
2019-03-31T08:06:37.304Z,42.20
2019-03-31T08:10:03.851Z,39.60
2019-03-31T08:13:27.704Z,38.67
2019-03-31T08:16:51.527Z,40.73
2019-03-31T08:20:17.301Z,44.10
2019-03-31T08:23:41.074Z,41.73
2019-03-31T08:27:05.670Z,41.87
2019-03-31T08:30:29.702Z,42.33
2019-03-31T08:33:53.581Z,37.77
2019-03-31T08:37:17.598Z,41.60
2019-03-31T08:40:41.485Z,37.87
2019-03-31T08:44:05.476Z,34.67
2019-03-31T08:47:29.435Z,32.07
2019-03-31T08:50:53.272Z,26.63
2019-03-31T08:54:17.053Z,25.57
2019-03-31T08:57:41.029Z,45.90
2019-03-31T09:01:09.377Z,22.30
2019-03-31T09:04:33.267Z,26.67
2019-03-31T09:07:57.119Z,26.63
2019-03-31T09:11:21.024Z,25.77
2019-03-31T09:14:45.333Z,25.47
2019-03-31T09:18:09.174Z,21.30
2019-03-31T09:21:33.270Z,25.77
2019-03-31T09:24:57.056Z,23.70
2019-03-31T09:28:20.916Z,21.27
2019-03-31T09:31:44.811Z,22.43
2019-03-31T09:35:09.479Z,22.80
2019-03-31T09:38:33.345Z,24.57
2019-03-31T09:41:57.121Z,20.93
2019-03-31T09:45:21.231Z,18.33
2019-03-31T09:48:45.492Z,17.03
2019-03-31T09:52:09.275Z,21.43
2019-03-31T09:55:33.092Z,20.33
2019-03-31T09:58:56.950Z,16.33
2019-03-31T10:02:20.895Z,19.93
2019-03-31T10:05:48.205Z,16.57
2019-03-31T10:09:12.284Z,19.57
2019-03-31T10:12:38.877Z,17.87
2019-03-31T10:16:02.705Z,16.70
2019-03-31T10:19:26.743Z,17.70
2019-03-31T10:22:50.724Z,16.20
2019-03-31T10:26:16.137Z,23.17
2019-03-31T10:29:40.307Z,16.73
2019-03-31T10:33:04.917Z,20.97
2019-03-31T10:36:29.014Z,18.47
2019-03-31T10:39:54.448Z,20.50
2019-03-31T10:43:18.412Z,14.20
2019-03-31T10:46:42.709Z,14.07
2019-03-31T10:50:08.296Z,13.70
2019-03-31T10:53:32.282Z,18.13
2019-03-31T10:56:56.598Z,15.27
2019-03-31T11:00:24.055Z,15.63
2019-03-31T11:03:48.018Z,16.33
2019-03-31T11:07:13.104Z,16.87
2019-03-31T11:10:37.706Z,17.17
2019-03-31T11:14:01.677Z,16.03
2019-03-31T11:17:25.524Z,16.37
2019-03-31T11:20:49.479Z,18.10
2019-03-31T11:24:14.002Z,18.23
2019-03-31T11:27:43.707Z,17.67
2019-03-31T11:31:06.621Z,20.87
2019-03-31T11:34:30.419Z,16.87
2019-03-31T11:37:54.441Z,18.50
2019-03-31T11:41:18.314Z,18.87
2019-03-31T11:44:42.279Z,16.97
2019-03-31T11:48:06.249Z,15.37
2019-03-31T11:51:30.394Z,15.33
2019-03-31T11:54:54.229Z,13.13
2019-03-31T11:58:18.308Z,12.30
2019-03-31T12:01:42.320Z,12.77
2019-03-31T12:05:07.916Z,18.63
2019-03-31T12:08:31.846Z,13.20
2019-03-31T12:11:55.703Z,12.67
2019-03-31T12:15:19.670Z,12.33
2019-03-31T12:18:43.746Z,14.07
2019-03-31T12:22:07.641Z,13.13
2019-03-31T12:25:31.422Z,15.10
2019-03-31T12:28:55.519Z,16.57
2019-03-31T12:32:19.256Z,14.03
2019-03-31T12:35:43.229Z,13.13
2019-03-31T12:39:08.699Z,11.37
2019-03-31T12:42:34.831Z,13.63
2019-03-31T12:46:03.062Z,11.40
2019-03-31T12:49:26.861Z,12.90
2019-03-31T12:52:51.261Z,13.70
2019-03-31T12:56:15.384Z,13.10
2019-03-31T12:59:39.318Z,13.63
2019-03-31T13:03:03.302Z,18.37
2019-03-31T13:06:27.111Z,22.00
2019-03-31T13:09:50.963Z,18.53
2019-03-31T13:13:15.364Z,15.43
2019-03-31T13:16:39.248Z,13.97
2019-03-31T13:20:06.893Z,14.27
2019-03-31T13:23:30.664Z,13.30
2019-03-31T13:26:54.480Z,15.37
2019-03-31T13:30:21.749Z,14.27
2019-03-31T13:33:44.286Z,17.23
2019-03-31T13:37:08.283Z,16.57
2019-03-31T13:40:32.033Z,18.57
2019-03-31T13:43:56.141Z,18.73
2019-03-31T13:47:20.032Z,19.10
2019-03-31T13:50:44.240Z,20.73
2019-03-31T13:54:07.967Z,32.73
2019-03-31T13:57:32.537Z,23.47
2019-03-31T14:00:57.358Z,17.83
2019-03-31T14:04:21.486Z,21.57
2019-03-31T14:07:45.366Z,16.40
2019-03-31T14:11:09.182Z,16.20
2019-03-31T14:14:33.134Z,23.17
2019-03-31T14:17:57.173Z,19.30
2019-03-31T14:21:21.062Z,32.90
2019-03-31T14:24:45.286Z,20.37
2019-03-31T14:28:09.142Z,18.50
2019-03-31T14:31:33.264Z,19.80
2019-03-31T14:34:59.869Z,19.37
2019-03-31T14:38:23.717Z,19.50
2019-03-31T14:41:47.662Z,20.83
2019-03-31T14:45:14.486Z,24.70
2019-03-31T14:48:38.229Z,20.93
2019-03-31T14:52:02.277Z,26.63
2019-03-31T14:55:26.055Z,31.40
2019-03-31T14:58:50.048Z,24.23
2019-03-31T15:02:13.906Z,28.67
2019-03-31T15:05:37.804Z,51.50
2019-03-31T15:09:01.640Z,31.47
2019-03-31T15:12:25.521Z,25.20
2019-03-31T15:15:49.559Z,24.20
2019-03-31T15:19:13.603Z,25.33
2019-03-31T15:22:37.482Z,43.40
2019-03-31T15:26:01.257Z,31.73
2019-03-31T15:29:25.283Z,51.67
2019-03-31T15:32:49.230Z,45.60
2019-03-31T15:36:13.258Z,35.53
2019-03-31T15:39:37.051Z,34.03
2019-03-31T15:43:01.623Z,50.97
2019-03-31T15:46:26.306Z,125.77
2019-03-31T15:49:50.074Z,30.13
2019-03-31T15:53:14.042Z,30.17
2019-03-31T15:56:38.115Z,27.50
2019-03-31T16:00:02.093Z,51.70
2019-03-31T16:03:26.950Z,44.57
2019-03-31T16:06:50.764Z,143.40
2019-03-31T16:10:15.647Z,25.97
2019-03-31T16:13:40.194Z,27.50
2019-03-31T16:17:04.046Z,32.37
2019-03-31T16:20:27.950Z,68.03
2019-03-31T16:23:52.053Z,38.67
2019-03-31T16:27:15.887Z,36.97
2019-03-31T16:30:39.717Z,47.10
2019-03-31T16:34:03.623Z,41.63
2019-03-31T16:37:27.707Z,74.47
2019-03-31T16:40:51.444Z,96.63
2019-03-31T16:44:15.361Z,66.83
2019-03-31T16:47:39.329Z,41.03
2019-03-31T16:51:05.157Z,51.77
2019-03-31T16:54:29.067Z,47.80
2019-03-31T16:57:53.248Z,51.53
2019-03-31T17:01:18.357Z,49.00
2019-03-31T17:04:42.297Z,54.13
2019-03-31T17:08:06.121Z,57.30
2019-03-31T17:11:30.067Z,56.47
2019-03-31T17:14:54.024Z,54.50
2019-03-31T17:18:18.432Z,49.93
2019-03-31T17:21:42.266Z,69.63
2019-03-31T17:25:06.568Z,58.37
2019-03-31T17:28:30.528Z,51.40
2019-03-31T17:31:54.280Z,58.40
2019-03-31T17:35:18.117Z,52.67
2019-03-31T17:38:41.981Z,52.13
2019-03-31T17:42:06.790Z,52.83
2019-03-31T17:45:30.756Z,56.77
2019-03-31T17:48:56.354Z,52.77
2019-03-31T17:52:20.599Z,58.60
2019-03-31T17:55:44.657Z,58.90
2019-03-31T17:59:09.051Z,52.57
2019-03-31T18:02:34.151Z,46.10
2019-03-31T18:05:57.868Z,46.10
2019-03-31T18:09:21.919Z,48.33
2019-03-31T18:12:45.784Z,45.67
2019-03-31T18:16:09.779Z,41.20
2019-03-31T18:19:33.580Z,47.60
2019-03-31T18:22:57.540Z,42.53
2019-03-31T18:26:21.629Z,50.00
2019-03-31T18:29:45.818Z,48.37
2019-03-31T18:33:09.604Z,45.37
2019-03-31T18:36:37.047Z,46.30
2019-03-31T18:39:59.549Z,48.57
2019-03-31T18:43:23.937Z,56.20
2019-03-31T18:46:47.966Z,48.57
2019-03-31T18:50:11.830Z,51.63
2019-03-31T18:57:52.851Z,51.93
2019-03-31T19:01:33.739Z,68.27
2019-03-31T19:05:01.937Z,53.10
2019-03-31T19:08:36.520Z,53.80
2019-03-31T19:12:20.181Z,56.60
2019-03-31T19:16:02.837Z,43.87
2019-03-31T19:19:43.341Z,35.53
2019-03-31T19:23:09.024Z,34.03
2019-03-31T19:26:48.327Z,27.73
2019-03-31T19:30:15.456Z,25.03
2019-03-31T19:33:41.754Z,29.90
2019-03-31T19:37:13.259Z,25.90
2019-03-31T19:41:04.096Z,39.17
2019-03-31T19:44:27.402Z,31.00
2019-03-31T19:47:55.996Z,31.03
2019-03-31T19:51:24.098Z,27.13
2019-03-31T19:54:55.412Z,28.67
2019-03-31T19:58:35.974Z,28.00
2019-03-31T20:02:02.143Z,194.17
2019-03-31T20:05:28.476Z,51.97
2019-03-31T20:08:54.099Z,48.00
2019-03-31T20:12:19.776Z,78.30
2019-03-31T20:15:48.309Z,44.13
2019-03-31T20:19:25.875Z,48.43
2019-03-31T20:22:51.980Z,42.23
2019-03-31T20:26:22.067Z,48.03
2019-03-31T20:29:57.121Z,72.60
2019-03-31T20:33:25.399Z,65.27
2019-03-31T20:36:54.226Z,51.43
2019-03-31T20:40:20.172Z,63.40
2019-03-31T20:43:55.544Z,82.90
2019-03-31T20:47:19.295Z,67.67
2019-03-31T20:50:43.633Z,49.33
2019-03-31T20:54:07.426Z,54.67
2019-03-31T20:57:31.275Z,40.27
2019-03-31T21:00:55.107Z,32.90
2019-03-31T21:04:18.824Z,37.07
2019-03-31T21:07:42.726Z,45.27
2019-03-31T21:11:06.487Z,35.97
2019-03-31T21:14:30.539Z,30.70
2019-03-31T21:17:54.309Z,31.93
2019-03-31T21:21:18.180Z,46.20
2019-03-31T21:24:41.996Z,26.10
2019-03-31T21:28:05.786Z,31.90
2019-03-31T21:31:31.606Z,32.93
2019-03-31T21:34:55.513Z,29.97
2019-03-31T21:38:19.373Z,29.03
2019-03-31T21:41:43.267Z,33.53
2019-03-31T21:45:07.169Z,30.07
2019-03-31T21:48:30.955Z,25.97
2019-03-31T21:51:56.880Z,29.93
2019-03-31T21:55:20.918Z,26.23
2019-03-31T21:58:44.726Z,26.83
2019-03-31T22:02:12.746Z,29.60
2019-03-31T22:05:36.922Z,24.20
2019-03-31T22:09:00.644Z,29.03
2019-03-31T22:12:25.171Z,20.47
2019-03-31T22:15:48.913Z,33.50
2019-03-31T22:19:12.763Z,49.57
2019-03-31T22:22:36.604Z,21.30
2019-03-31T22:26:01.222Z,24.70
2019-03-31T22:29:25.066Z,25.03
2019-03-31T22:32:48.910Z,48.43
2019-03-31T22:36:21.283Z,19.93
2019-03-31T22:39:46.117Z,39.07
2019-03-31T22:43:09.889Z,24.07
2019-03-31T22:46:35.555Z,22.80
2019-03-31T22:49:59.426Z,24.53
2019-03-31T22:53:23.167Z,20.93
2019-03-31T22:56:46.980Z,21.80
2019-03-31T23:00:13.967Z,24.47
2019-03-31T23:03:37.803Z,31.13
2019-03-31T23:07:01.603Z,21.60
2019-03-31T23:10:25.348Z,18.60
2019-03-31T23:13:49.222Z,22.37
2019-03-31T23:17:13.146Z,26.57
2019-03-31T23:20:37.058Z,39.97
2019-03-31T23:24:00.842Z,83.47
2019-03-31T23:27:24.599Z,29.23
2019-03-31T23:30:48.454Z,22.83
2019-03-31T23:34:12.258Z,25.07
2019-03-31T23:37:36.115Z,35.17
2019-03-31T23:40:59.884Z,23.60
2019-03-31T23:44:23.697Z,19.97
2019-03-31T23:47:47.497Z,25.03
2019-03-31T23:51:11.419Z,20.50
2019-03-31T23:54:35.263Z,23.10
2019-03-31T23:57:58.985Z,25.43
